地図

経路データ

SID SEASON NUMBER BASIN SUBBASIN NAME ISO_TIME NATURE LAT LON WMO_WIND WMO_PRES WMO_AGENCY TRACK_TYPE DIST2LAND LANDFALL IFLAG USA_AGENCY USA_ATCF_ID USA_LAT USA_LON USA_RECORD USA_STATUS USA_WIND USA_PRES USA_SSHS USA_R34_NE USA_R34_SE USA_R34_SW USA_R34_NW USA_R50_NE USA_R50_SE USA_R50_SW USA_R50_NW USA_R64_NE USA_R64_SE USA_R64_SW USA_R64_NW USA_POCI USA_ROCI USA_RMW USA_EYE TOKYO_LAT TOKYO_LON TOKYO_GRADE TOKYO_WIND TOKYO_PRES TOKYO_R50_DIR TOKYO_R50_LONG TOKYO_R50_SHORT TOKYO_R30_DIR TOKYO_R30_LONG TOKYO_R30_SHORT TOKYO_LAND CMA_LAT CMA_LON CMA_CAT CMA_WIND CMA_PRES HKO_LAT HKO_LON HKO_CAT HKO_WIND HKO_PRES NEWDELHI_LAT NEWDELHI_LON NEWDELHI_GRADE NEWDELHI_WIND NEWDELHI_PRES NEWDELHI_CI NEWDELHI_DP NEWDELHI_POCI REUNION_LAT REUNION_LON REUNION_TYPE REUNION_WIND REUNION_PRES REUNION_TNUM REUNION_CI REUNION_RMW REUNION_R34_NE REUNION_R34_SE REUNION_R34_SW REUNION_R34_NW REUNION_R50_NE REUNION_R50_SE REUNION_R50_SW REUNION_R50_NW REUNION_R64_NE REUNION_R64_SE REUNION_R64_SW REUNION_R64_NW BOM_LAT BOM_LON BOM_TYPE BOM_WIND BOM_PRES BOM_TNUM BOM_CI BOM_RMW BOM_R34_NE BOM_R34_SE BOM_R34_SW BOM_R34_NW BOM_R50_NE BOM_R50_SE BOM_R50_SW BOM_R50_NW BOM_R64_NE BOM_R64_SE BOM_R64_SW BOM_R64_NW BOM_ROCI BOM_POCI BOM_EYE BOM_POS_METHOD BOM_PRES_METHOD NADI_LAT NADI_LON NADI_CAT NADI_WIND NADI_PRES WELLINGTON_LAT WELLINGTON_LON WELLINGTON_WIND WELLINGTON_PRES DS824_LAT DS824_LON DS824_STAGE DS824_WIND DS824_PRES TD9636_LAT TD9636_LON TD9636_STAGE TD9636_WIND TD9636_PRES TD9635_LAT TD9635_LON TD9635_WIND TD9635_PRES TD9635_ROCI NEUMANN_LAT NEUMANN_LON NEUMANN_CLASS NEUMANN_WIND NEUMANN_PRES MLC_LAT MLC_LON MLC_CLASS MLC_WIND MLC_PRES USA_GUST BOM_GUST BOM_GUST_PER REUNION_GUST REUNION_GUST_PER USA_SEAHGT USA_SEARAD_NE USA_SEARAD_SE USA_SEARAD_SW USA_SEARAD_NW STORM_SPEED STORM_DIR
1999288N15093 1999 91 NI BB NOT_NAMED 1999-10-15 00:00:00 NR 14.5000 92.7000 main 232 232 O_____________ jtwc_io IO041999 14.5000 92.7000 20 -1 10 263
1999288N15093 1999 91 NI BB NOT_NAMED 1999-10-15 03:00:00 NR 14.4369 92.1988 20 1004 newdelhi main 279 279 P___O_________ IO041999 14.9053 92.0483 22 -1 13.5000 92.5000 D 20 1004 1.50000 4 12 280
1999288N15093 1999 91 NI BB NOT_NAMED 1999-10-15 06:00:00 NR 14.7200 91.4400 20 1002 newdelhi main 333 328 O___O_________ jtwc_io IO041999 15.2000 91.4000 25 -1 14.0000 91.5000 D 20 1002 1.50000 4 15 291
1999288N15093 1999 91 NI BB NOT_NAMED 1999-10-15 09:00:00 NR 14.9933 90.7102 main 391 391 P___P_________ IO041999 15.3224 90.7695 27 -1 14.5545 90.6310 D 20 1002 4 14 290
1999288N15093 1999 91 NI BB NOT_NAMED 1999-10-15 12:00:00 NR 15.2000 90.1000 20 1002 newdelhi main 448 448 O___O_________ jtwc_io IO041999 15.4000 90.2000 30 -1 15.0000 90.0000 D 20 1002 1.50000 4 10 292
1999288N15093 1999 91 NI BB NOT_NAMED 1999-10-15 15:00:00 NR 15.3694 89.7337 main 486 486 P___P_________ IO041999 15.5847 89.7349 37 0 15.1540 89.7324 D 20 1002 4 7 294
1999288N15093 1999 91 NI BB NOT_NAMED 1999-10-15 18:00:00 NR 15.5000 89.4000 20 1002 newdelhi main 516 516 O___O_________ jtwc_io IO041999 15.8000 89.3000 45 0 15.2000 89.5000 D 20 1002 1.50000 4 9 289
1999288N15093 1999 91 NI BB NOT_NAMED 1999-10-15 21:00:00 NR 15.6500 88.9000 25 1000 newdelhi main 549 515 P___O_________ IO041999 16.0000 88.7999 45 0 15.3000 89.0000 DD 25 1000 2.00000 6 10 290
1999288N15093 1999 91 NI BB NOT_NAMED 1999-10-16 00:00:00 NR 15.8500 88.4000 30 1000 newdelhi main 505 465 O___O_________ jtwc_io IO041999 16.2000 88.3000 45 0 15.5000 88.5000 DD 30 1000 2.00000 8 9 308
1999288N15093 1999 91 NI BB NOT_NAMED 1999-10-16 03:00:00 NR 16.1962 88.1712 35 998 newdelhi main 465 414 P___O_________ IO041999 16.3924 87.8423 50 0 16.0000 88.5000 CS 35 998 2.50000 10 10 316
1999288N15093 1999 91 NI BB NOT_NAMED 1999-10-16 06:00:00 NR 16.5500 87.7000 35 998 newdelhi main 404 347 O___O_________ jtwc_io IO041999 16.6000 87.4000 55 0 16.5000 88.0000 CS 35 998 2.50000 10 12 309
1999288N15093 1999 91 NI BB NOT_NAMED 1999-10-16 09:00:00 NR 16.9250 87.2175 45 996 newdelhi main 347 261 P___O_________ IO041999 16.8500 86.9350 60 0 17.0000 87.5000 CS 45 996 3.00000 12 14 303
1999288N15093 1999 91 NI BB NOT_NAMED 1999-10-16 12:00:00 NR 17.3000 86.5000 45 994 newdelhi main 261 215 O___O_________ jtwc_io IO041999 17.1000 86.5000 65 1 17.5000 86.5000 CS 45 994 3.00000 12 12 296
1999288N15093 1999 91 NI BB NOT_NAMED 1999-10-16 15:00:00 NR 17.4612 86.0600 55 992 newdelhi main 215 199 P___O_________ IO041999 17.3224 86.1199 72 1 17.6000 86.0000 SCS 55 992 3.50000 16 6 294
1999288N15093 1999 91 NI BB NOT_NAMED 1999-10-16 18:00:00 NR 17.5500 85.9000 55 992 newdelhi main 192 184 O___O_________ jtwc_io IO041999 17.5000 85.8000 80 1 17.6000 86.0000 SCS 55 992 3.50000 16 3 304
1999288N15093 1999 91 NI BB NOT_NAMED 1999-10-16 21:00:00 NR 17.6537 85.7637 55 992 newdelhi main 176 169 P___O_________ IO041999 17.6074 85.5274 100 3 17.7000 86.0000 SCS 55 992 3.50000 16 3 302
1999288N15093 1999 91 NI BB NOT_NAMED 1999-10-17 00:00:00 NR 17.7000 85.6500 65 988 newdelhi main 169 123 O___O_________ jtwc_io IO041999 17.7000 85.3000 120 4 17.7000 86.0000 VSCS 65 988 4.00000 20 5 300
1999288N15093 1999 91 NI BB NOT_NAMED 1999-10-17 03:00:00 NR 17.9137 85.2887 80 978 newdelhi main 123 92 P___O_________ IO041999 17.8275 85.0775 120 4 18.0000 85.5000 VSCS 80 978 4.50000 30 7 294
1999288N15093 1999 91 NI BB NOT_NAMED 1999-10-17 06:00:00 NR 18.0000 84.9500 80 978 newdelhi main 92 61 O___O_________ jtwc_io IO041999 18.0000 84.9000 120 4 18.0000 85.0000 VSCS 80 978 4.50000 30 6 319
1999288N15093 1999 91 NI BB NOT_NAMED 1999-10-17 09:00:00 NR 18.3600 84.8850 80 978 newdelhi main 53 33 P___O_________ IO041999 18.2200 84.7700 120 4 18.5000 85.0000 VSCS 80 978 4.50000 30 8 353
1999288N15093 1999 91 NI BB NOT_NAMED 1999-10-17 12:00:00 NR 18.7500 84.8500 80 978 newdelhi main 30 15 O___O_________ jtwc_io IO041999 18.5000 84.7000 120 4 19.0000 85.0000 VSCS 80 978 4.50000 30 6 356
1999288N15093 1999 91 NI BB NOT_NAMED 1999-10-17 15:00:00 NR 18.9100 84.8462 80 978 newdelhi main 15 10 P___O_________ IO041999 18.8200 84.6924 105 3 19.0000 85.0000 VSCS 80 978 4.50000 30 5 0
1999288N15093 1999 91 NI BB NOT_NAMED 1999-10-17 18:00:00 NR 19.2000 84.8500 90 968 newdelhi main 10 0 O___O_________ jtwc_io IO041999 19.2000 84.7000 90 2 19.2000 85.0000 VSCS 90 968 5.00000 40 5 0
1999288N15093 1999 91 NI BB NOT_NAMED 1999-10-17 21:00:00 NR 19.4138 84.8288 main 0 0 P___P_________ IO041999 19.6275 84.6575 90 2 19.2000 85.0000 VSCS 6 356
1999288N15093 1999 91 NI BB NOT_NAMED 1999-10-18 00:00:00 NR 19.8000 84.8000 newdelhi main 0 0 O___O_________ jtwc_io IO041999 20.1000 84.6000 90 2 19.5000 85.0000 VSCS 0.00000 11 357
1999288N15093 1999 91 NI BB NOT_NAMED 1999-10-18 03:00:00 NR 20.5350 84.7639 newdelhi main 0 0 P___O_________ IO041999 20.5700 84.5277 77 1 20.5000 85.0000 SCS 0.00000 10 0
1999288N15093 1999 91 NI BB NOT_NAMED 1999-10-18 06:00:00 NR 20.7571 84.7857 newdelhi main 0 0 O___O_________ jtwc_io IO041999 21.1000 84.5000 65 1 20.5000 85.0000 SCS 0.00000 4 14
1999288N15093 1999 91 NI BB NOT_NAMED 1999-10-18 09:00:00 NR 20.9075 84.8565 newdelhi main 0 0 P___O_________ IO041999 21.7225 84.5695 52 0 20.5000 85.0000 CS 0.00000 16 54
1999288N15093 1999 91 NI BB NOT_NAMED 1999-10-18 12:00:00 NR 21.6800 86.1400 newdelhi main 0 0 O___O_________ jtwc_io IO041999 22.4000 84.7000 40 0 21.5000 86.5000 CS 0.00000 15 87
1999288N15093 1999 91 NI BB NOT_NAMED 1999-10-18 15:00:00 NR 21.0000 86.5000 newdelhi main 0 0 ____O_________ IO041999 -1 21.0000 86.5000 DD 0.00000 9 22
1999288N15093 1999 91 NI BB NOT_NAMED 1999-10-18 18:00:00 NR 22.5000 86.5000 newdelhi main 0 0 ____O_________ -1 22.5000 86.5000 DD 0.00000 20 0
1999288N15093 1999 91 NI BB NOT_NAMED 1999-10-18 21:00:00 NR 23.0000 86.5000 newdelhi main 0 0 ____O_________ -1 23.0000 86.5000 DD 0.00000 5 2
1999288N15093 1999 91 NI BB NOT_NAMED 1999-10-19 00:00:00 NR 23.0000 86.5000 newdelhi main 0 0 ____O_________ -1 23.0000 86.5000 D 0.00000 5 2
1999288N15093 1999 91 NI BB NOT_NAMED 1999-10-19 03:00:00 NR 23.5000 86.5000 newdelhi main 0 ____O_________ -1 23.5000 86.5000 D 0.00000 10 2

IBTrACS Databaseについて

本データベースは、米国NOAAが公開する1842年以降の世界の熱帯低気圧のベストトラックデータアーカイブInternational Best Track Archive for Climate Stewardship (IBTrACS)を、ウェブで閲覧しやすい形式に変換したものです。

最終更新日:2021-10-08